createdAt,value
2024-03-18T00:00:48.828Z,0.49
2024-03-18T00:02:11.214Z,0.50
2024-03-18T00:03:12.718Z,0.45
2024-03-18T00:04:14.427Z,0.41
2024-03-18T00:05:18.737Z,0.41
2024-03-18T00:06:20.270Z,0.40
2024-03-18T00:07:21.909Z,0.35
2024-03-18T00:08:23.595Z,0.38
2024-03-18T00:09:25.358Z,0.35
2024-03-18T00:10:26.911Z,0.35
2024-03-18T00:11:28.437Z,0.37
2024-03-18T00:12:30.209Z,0.37
2024-03-18T00:13:32.275Z,0.39
2024-03-18T00:14:33.932Z,0.40
2024-03-18T00:15:35.533Z,0.39
2024-03-18T00:16:37.089Z,0.40
2024-03-18T00:17:38.627Z,0.37
2024-03-18T00:18:40.277Z,0.37
2024-03-18T00:19:41.932Z,0.40
2024-03-18T00:20:43.549Z,0.40
2024-03-18T00:21:45.176Z,0.41
2024-03-18T00:22:46.783Z,0.36
2024-03-18T00:23:48.263Z,0.35
2024-03-18T00:24:49.846Z,0.35
2024-03-18T00:25:51.538Z,0.32
2024-03-18T00:26:53.108Z,0.28
2024-03-18T00:27:54.640Z,0.27
2024-03-18T00:28:56.191Z,0.31
2024-03-18T00:29:57.781Z,0.32
2024-03-18T00:30:59.527Z,0.34
2024-03-18T00:32:01.025Z,0.34
2024-03-18T00:33:02.641Z,0.34
2024-03-18T00:34:04.304Z,0.33
2024-03-18T00:35:06.819Z,0.31
2024-03-18T00:36:08.628Z,0.31
2024-03-18T00:37:10.368Z,0.31
2024-03-18T00:38:12.028Z,0.33
2024-03-18T00:39:13.580Z,0.35
2024-03-18T00:40:16.632Z,0.37
2024-03-18T00:41:36.733Z,0.40
2024-03-18T00:42:38.356Z,0.40
2024-03-18T00:43:39.978Z,0.41
2024-03-18T00:44:41.850Z,0.41
2024-03-18T00:45:43.425Z,0.43
2024-03-18T00:46:47.373Z,0.45
2024-03-18T00:47:49.510Z,0.48
2024-03-18T00:48:51.033Z,0.44
2024-03-18T00:49:52.575Z,0.43
2024-03-18T00:50:54.179Z,0.41
2024-03-18T00:51:56.680Z,0.42
2024-03-18T00:52:58.159Z,0.41
2024-03-18T00:54:00.215Z,0.42
2024-03-18T00:55:01.689Z,0.39
2024-03-18T00:56:07.425Z,0.35
2024-03-18T00:57:08.943Z,0.35
2024-03-18T00:58:10.449Z,0.34
2024-03-18T00:59:12.323Z,0.35
2024-03-18T01:00:14.252Z,0.34
2024-03-18T01:01:16.018Z,0.34
2024-03-18T01:02:18.465Z,0.32
2024-03-18T01:03:19.962Z,0.30
2024-03-18T01:04:22.436Z,0.30
2024-03-18T01:05:24.465Z,0.31
2024-03-18T01:06:26.373Z,0.30
2024-03-18T01:07:27.971Z,0.33
2024-03-18T01:08:30.005Z,0.30
2024-03-18T01:09:31.484Z,0.27
2024-03-18T01:10:34.041Z,0.26
2024-03-18T01:11:35.587Z,0.29
2024-03-18T01:12:37.278Z,0.25
2024-03-18T01:13:40.613Z,0.23
2024-03-18T01:14:42.215Z,0.24
2024-03-18T01:15:44.002Z,0.22
2024-03-18T01:16:45.699Z,0.23
2024-03-18T01:17:48.335Z,0.23
2024-03-18T01:18:50.350Z,0.25
2024-03-18T01:19:51.844Z,0.27
2024-03-18T01:20:54.923Z,0.28
2024-03-18T01:21:56.536Z,0.28
2024-03-18T01:22:58.226Z,0.29
2024-03-18T01:23:59.899Z,0.28
2024-03-18T01:25:01.730Z,0.27
2024-03-18T01:26:03.649Z,0.30
2024-03-18T01:27:05.139Z,0.29
2024-03-18T01:28:06.668Z,0.29
2024-03-18T01:29:08.239Z,0.29
2024-03-18T01:30:14.212Z,0.27
2024-03-18T01:31:16.366Z,0.27
2024-03-18T01:32:17.945Z,0.22
2024-03-18T01:33:20.086Z,0.20
2024-03-18T01:34:21.628Z,0.18
2024-03-18T01:35:23.438Z,0.15
2024-03-18T01:36:24.980Z,0.17
2024-03-18T01:37:26.509Z,0.18
2024-03-18T01:38:29.064Z,0.20
2024-03-18T01:39:30.655Z,0.21
2024-03-18T01:40:33.503Z,0.18
2024-03-18T01:41:35.130Z,0.15
2024-03-18T01:42:37.459Z,0.17
2024-03-18T01:43:40.090Z,0.18
2024-03-18T01:44:55.413Z,0.15
2024-03-18T01:45:57.169Z,0.16
2024-03-18T01:46:58.650Z,0.16
2024-03-18T01:48:00.482Z,0.17
2024-03-18T01:49:02.251Z,0.13
2024-03-18T01:50:04.492Z,0.16
2024-03-18T01:51:06.237Z,0.14
2024-03-18T01:52:07.990Z,0.13
2024-03-18T01:53:14.194Z,0.13
2024-03-18T01:54:17.481Z,0.16
2024-03-18T01:55:19.458Z,0.16
2024-03-18T01:56:21.319Z,0.18
2024-03-18T01:57:24.608Z,0.19
2024-03-18T01:58:26.400Z,0.14
2024-03-18T01:59:28.056Z,0.12
2024-03-18T02:00:38.895Z,0.09
2024-03-18T02:01:41.214Z,0.12
2024-03-18T02:02:42.894Z,0.12
2024-03-18T02:03:44.486Z,0.12
2024-03-18T02:04:46.039Z,0.11
2024-03-18T02:05:47.959Z,0.09
2024-03-18T02:06:49.781Z,0.06
2024-03-18T02:07:51.978Z,0.05
2024-03-18T02:08:53.499Z,0.06
2024-03-18T02:09:55.243Z,0.08
2024-03-18T02:10:56.759Z,0.07
2024-03-18T02:11:58.326Z,0.08
2024-03-18T02:13:05.222Z,0.09
2024-03-18T02:14:17.598Z,0.07
2024-03-18T02:15:21.156Z,0.07
2024-03-18T02:16:22.697Z,0.07
2024-03-18T02:17:24.293Z,0.07
2024-03-18T02:18:25.863Z,0.07
2024-03-18T02:19:27.425Z,0.07
2024-03-18T02:20:29.053Z,0.07
2024-03-18T02:21:30.597Z,0.07
2024-03-18T02:22:32.322Z,0.06
2024-03-18T02:23:33.826Z,0.05
2024-03-18T02:24:35.395Z,0.02
2024-03-18T02:25:37.118Z,-0.01
2024-03-18T02:26:38.665Z,-0.02
2024-03-18T02:27:40.439Z,-0.03
2024-03-18T02:28:42.590Z,-0.02
2024-03-18T02:29:44.193Z,-0.02
2024-03-18T02:30:45.863Z,-0.00
2024-03-18T02:31:47.459Z,0.03
2024-03-18T02:32:48.929Z,0.01
2024-03-18T02:33:50.455Z,0.01
2024-03-18T02:34:51.996Z,0.02
2024-03-18T02:35:53.669Z,0.00
2024-03-18T02:36:55.197Z,-0.00
2024-03-18T02:37:56.688Z,-0.02
2024-03-18T02:38:58.211Z,-0.03
2024-03-18T02:40:07.549Z,-0.03
2024-03-18T02:41:09.290Z,-0.07
2024-03-18T02:42:11.022Z,-0.04
2024-03-18T02:43:13.804Z,-0.03
2024-03-18T02:44:16.941Z,-0.05
2024-03-18T02:45:18.429Z,-0.03
2024-03-18T02:46:20.055Z,-0.05
2024-03-18T02:47:21.885Z,-0.06
2024-03-18T02:48:25.160Z,-0.05
2024-03-18T02:49:29.436Z,-0.06
2024-03-18T02:50:32.116Z,-0.05
2024-03-18T02:51:33.960Z,-0.04
2024-03-18T02:52:39.704Z,-0.04
2024-03-18T02:53:41.277Z,-0.06
2024-03-18T02:54:42.885Z,-0.06
2024-03-18T02:55:44.499Z,-0.05
2024-03-18T02:56:46.356Z,-0.03
2024-03-18T02:57:48.032Z,-0.01
2024-03-18T02:58:49.538Z,0.01
2024-03-18T02:59:51.109Z,0.02
2024-03-18T03:00:52.897Z,-0.00
2024-03-18T03:01:54.706Z,0.01
2024-03-18T03:02:56.549Z,-0.01
2024-03-18T03:03:58.080Z,-0.01
2024-03-18T03:04:59.857Z,-0.01
2024-03-18T03:06:01.599Z,0.02
2024-03-18T03:07:03.589Z,0.03
2024-03-18T03:08:05.151Z,0.03
2024-03-18T03:09:06.802Z,0.02
2024-03-18T03:10:08.785Z,0.02
2024-03-18T03:11:10.640Z,0.02
2024-03-18T03:12:12.275Z,0.01
2024-03-18T03:13:14.034Z,0.03
2024-03-18T03:14:16.198Z,0.01
2024-03-18T03:15:17.864Z,0.01
2024-03-18T03:16:19.429Z,0.02
2024-03-18T03:17:23.748Z,0.01
2024-03-18T03:18:25.721Z,0.02
2024-03-18T03:19:27.322Z,0.02
2024-03-18T03:20:31.387Z,-0.01
2024-03-18T03:21:32.935Z,-0.01
2024-03-18T03:22:38.567Z,-0.01
2024-03-18T03:23:40.158Z,-0.02
2024-03-18T03:24:41.760Z,-0.01
2024-03-18T03:25:43.720Z,-0.03
2024-03-18T03:26:45.245Z,-0.02
2024-03-18T03:27:47.037Z,-0.02
2024-03-18T03:28:48.784Z,0.00
2024-03-18T03:29:50.276Z,0.01
2024-03-18T03:31:09.129Z,0.05
2024-03-18T03:32:11.572Z,0.04
2024-03-18T03:33:13.391Z,0.06
2024-03-18T03:34:16.388Z,0.08
2024-03-18T03:35:18.029Z,0.03
2024-03-18T03:36:19.606Z,0.05
2024-03-18T03:37:21.370Z,0.03
2024-03-18T03:38:23.900Z,0.03
2024-03-18T03:39:25.371Z,0.01
2024-03-18T03:40:27.469Z,0.02
2024-03-18T03:41:29.056Z,0.02
2024-03-18T03:42:30.943Z,-0.03
2024-03-18T03:43:32.650Z,-0.05
2024-03-18T03:44:35.012Z,-0.01
2024-03-18T03:45:36.595Z,0.01
2024-03-18T03:46:38.089Z,-0.03
2024-03-18T03:47:39.835Z,-0.03
2024-03-18T03:48:41.638Z,-0.05
2024-03-18T03:49:43.184Z,-0.06
2024-03-18T03:50:44.808Z,-0.07
2024-03-18T03:51:46.391Z,-0.09
2024-03-18T03:52:48.284Z,-0.09
2024-03-18T03:53:50.963Z,-0.08
2024-03-18T03:54:52.523Z,-0.08
2024-03-18T03:55:58.633Z,-0.07
2024-03-18T03:57:00.382Z,-0.09
2024-03-18T03:58:05.363Z,-0.09
2024-03-18T03:59:07.241Z,-0.10
2024-03-18T04:00:11.628Z,-0.07
2024-03-18T04:01:18.918Z,-0.04
2024-03-18T04:02:20.650Z,-0.05
2024-03-18T04:03:24.311Z,-0.06
2024-03-18T04:04:26.245Z,-0.07
2024-03-18T04:05:27.770Z,-0.10
2024-03-18T04:06:29.315Z,-0.10
2024-03-18T04:07:30.817Z,-0.11
2024-03-18T04:08:32.489Z,-0.10
2024-03-18T04:09:34.021Z,-0.06
2024-03-18T04:10:35.594Z,-0.06
2024-03-18T04:11:37.388Z,-0.06
2024-03-18T04:12:38.966Z,-0.07
2024-03-18T04:13:41.731Z,-0.07
2024-03-18T04:14:43.679Z,-0.05
2024-03-18T04:15:45.440Z,-0.06
2024-03-18T04:16:47.027Z,-0.06
2024-03-18T04:17:51.202Z,-0.06
2024-03-18T04:18:53.095Z,-0.03
2024-03-18T04:19:54.779Z,-0.02
2024-03-18T04:21:00.161Z,-0.03
2024-03-18T04:22:01.678Z,-0.02
2024-03-18T04:23:05.687Z,0.00
2024-03-18T04:24:09.275Z,0.03
2024-03-18T04:25:11.047Z,-0.02
2024-03-18T04:26:12.855Z,-0.04
2024-03-18T04:27:15.281Z,-0.03
2024-03-18T04:28:17.000Z,-0.02
2024-03-18T04:29:18.543Z,-0.02
2024-03-18T04:30:20.653Z,-0.04
2024-03-18T04:31:22.193Z,-0.04
2024-03-18T04:32:23.792Z,-0.07
2024-03-18T04:33:25.330Z,-0.08
2024-03-18T04:34:27.413Z,-0.09
2024-03-18T04:35:29.180Z,-0.08
2024-03-18T04:36:30.714Z,-0.09
2024-03-18T04:37:35.213Z,-0.09
2024-03-18T04:38:36.936Z,-0.05
2024-03-18T04:39:39.001Z,-0.04
2024-03-18T04:40:41.521Z,-0.06
2024-03-18T04:41:43.062Z,-0.06
2024-03-18T04:42:45.945Z,-0.07
2024-03-18T04:43:47.477Z,-0.05
2024-03-18T04:44:49.012Z,-0.06
2024-03-18T04:45:50.610Z,-0.04
2024-03-18T04:46:52.195Z,-0.01
2024-03-18T04:47:54.464Z,0.01
2024-03-18T04:48:56.147Z,0.02
2024-03-18T04:49:57.738Z,0.01
2024-03-18T04:50:59.366Z,-0.01
2024-03-18T04:52:01.050Z,-0.01
2024-03-18T04:53:02.747Z,0.02
2024-03-18T04:54:04.339Z,0.03
2024-03-18T04:55:07.807Z,0.06
2024-03-18T04:56:09.462Z,0.10
2024-03-18T04:57:11.039Z,0.08
2024-03-18T04:58:12.718Z,0.05
2024-03-18T04:59:14.266Z,0.05
2024-03-18T05:00:16.988Z,0.06
2024-03-18T05:01:19.312Z,0.05
2024-03-18T05:02:22.362Z,0.04
2024-03-18T05:03:23.946Z,0.04
2024-03-18T05:04:26.557Z,0.05
2024-03-18T05:05:28.063Z,0.05
2024-03-18T05:06:30.830Z,0.05
2024-03-18T05:07:32.754Z,0.07
2024-03-18T05:08:34.239Z,0.04
2024-03-18T05:09:35.745Z,0.04
2024-03-18T05:10:37.334Z,0.05
2024-03-18T05:11:39.028Z,0.05
2024-03-18T05:12:40.582Z,0.04
2024-03-18T05:13:42.271Z,0.05
2024-03-18T05:14:43.794Z,0.07
2024-03-18T05:15:45.353Z,0.06
2024-03-18T05:16:47.095Z,0.06
2024-03-18T05:17:48.682Z,0.05
2024-03-18T05:18:50.240Z,0.07
2024-03-18T05:19:52.608Z,0.09
2024-03-18T05:20:54.283Z,0.07
2024-03-18T05:21:55.932Z,0.08
2024-03-18T05:22:57.527Z,0.07
2024-03-18T05:24:00.504Z,0.06
2024-03-18T05:25:06.804Z,0.06
2024-03-18T05:26:08.323Z,0.05
2024-03-18T05:27:12.017Z,0.09
2024-03-18T05:28:13.528Z,0.08
2024-03-18T05:29:15.553Z,0.13
2024-03-18T05:30:17.449Z,0.14
2024-03-18T05:31:19.012Z,0.10
2024-03-18T05:32:20.651Z,0.09
2024-03-18T05:33:22.292Z,0.09
2024-03-18T05:34:23.823Z,0.07
2024-03-18T05:35:25.380Z,0.09
2024-03-18T05:36:28.207Z,0.11
2024-03-18T05:37:29.850Z,0.09
2024-03-18T05:38:31.476Z,0.07
2024-03-18T05:39:33.948Z,0.09
2024-03-18T05:40:35.505Z,0.10
2024-03-18T05:41:37.142Z,0.10
2024-03-18T05:42:38.768Z,0.10
2024-03-18T05:43:40.314Z,0.08
2024-03-18T05:44:41.892Z,0.07
2024-03-18T05:45:43.456Z,0.07
2024-03-18T05:46:45.190Z,0.08
2024-03-18T05:47:46.935Z,0.08
2024-03-18T05:48:48.731Z,0.09
2024-03-18T05:49:50.293Z,0.12
2024-03-18T05:50:51.859Z,0.14
2024-03-18T05:51:54.482Z,0.14
2024-03-18T05:52:56.141Z,0.15
2024-03-18T05:53:57.794Z,0.21
2024-03-18T05:54:59.438Z,0.22
2024-03-18T05:56:03.040Z,0.20
2024-03-18T05:57:04.920Z,0.18
2024-03-18T05:58:06.662Z,0.16
2024-03-18T05:59:10.697Z,0.10
2024-03-18T06:00:12.800Z,0.07
2024-03-18T06:01:14.401Z,0.05
2024-03-18T06:02:16.181Z,0.04
2024-03-18T06:03:18.219Z,0.04
2024-03-18T06:04:20.557Z,0.07
2024-03-18T06:05:22.820Z,0.09
2024-03-18T06:06:24.362Z,0.11
2024-03-18T06:07:25.918Z,0.13
2024-03-18T06:08:27.547Z,0.11
2024-03-18T06:09:29.302Z,0.11
2024-03-18T06:10:31.116Z,0.13
2024-03-18T06:11:34.389Z,0.15
2024-03-18T06:12:35.938Z,0.15
2024-03-18T06:13:37.581Z,0.12
2024-03-18T06:14:39.107Z,0.11
2024-03-18T06:15:41.156Z,0.12
2024-03-18T06:16:42.707Z,0.14
2024-03-18T06:17:44.263Z,0.13
2024-03-18T06:18:46.936Z,0.16
2024-03-18T06:19:50.403Z,0.12
2024-03-18T06:20:55.544Z,0.10
2024-03-18T06:21:59.595Z,0.12
2024-03-18T06:23:01.467Z,0.11
2024-03-18T06:24:07.820Z,0.10
2024-03-18T06:25:30.442Z,0.10
2024-03-18T06:26:34.199Z,0.10
2024-03-18T06:27:35.744Z,0.12
2024-03-18T06:28:37.311Z,0.11
2024-03-18T06:29:38.900Z,0.11
2024-03-18T06:30:40.723Z,0.12
2024-03-18T06:31:42.426Z,0.13
2024-03-18T06:32:44.336Z,0.13
2024-03-18T06:33:48.367Z,0.13
2024-03-18T06:34:50.398Z,0.12
2024-03-18T06:35:54.561Z,0.13
2024-03-18T06:36:56.126Z,0.14
2024-03-18T06:37:57.686Z,0.15
2024-03-18T06:38:59.335Z,0.15
2024-03-18T06:40:01.124Z,0.16
2024-03-18T06:41:03.187Z,0.16
2024-03-18T06:42:05.429Z,0.16
2024-03-18T06:43:07.662Z,0.14
2024-03-18T06:44:09.199Z,-0.04
2024-03-18T06:45:11.749Z,0.16
2024-03-18T06:46:13.366Z,0.17
2024-03-18T06:47:14.934Z,0.17
2024-03-18T06:48:16.506Z,0.14
2024-03-18T06:49:18.448Z,0.16
2024-03-18T06:50:22.363Z,0.17
2024-03-18T06:51:23.920Z,0.17
2024-03-18T06:52:25.470Z,0.18
2024-03-18T06:53:27.098Z,0.18
2024-03-18T06:54:28.650Z,0.19
2024-03-18T06:55:31.216Z,0.20
2024-03-18T06:56:32.810Z,0.24
2024-03-18T06:57:35.675Z,0.26
2024-03-18T06:58:39.205Z,0.29
2024-03-18T06:59:40.893Z,0.29
2024-03-18T07:00:42.588Z,0.28
2024-03-18T07:01:44.110Z,0.29
2024-03-18T07:02:49.630Z,0.31
2024-03-18T07:03:51.126Z,0.31
2024-03-18T07:04:52.670Z,0.32
2024-03-18T07:05:54.284Z,0.32
2024-03-18T07:06:57.972Z,0.32
2024-03-18T07:07:59.594Z,0.32
2024-03-18T07:09:01.358Z,0.32
2024-03-18T07:10:04.449Z,0.33
2024-03-18T07:11:06.060Z,0.32
2024-03-18T07:12:08.225Z,0.32
2024-03-18T07:13:09.913Z,0.32
2024-03-18T07:14:11.675Z,0.34
2024-03-18T07:15:16.721Z,0.34
2024-03-18T07:16:19.565Z,0.35
2024-03-18T07:17:21.166Z,0.36
2024-03-18T07:18:22.705Z,0.36
2024-03-18T07:19:24.248Z,0.37
2024-03-18T07:20:39.193Z,0.37
2024-03-18T07:21:45.108Z,0.38
2024-03-18T07:22:46.677Z,0.37
2024-03-18T07:23:48.291Z,0.37
2024-03-18T07:24:49.823Z,0.32
2024-03-18T07:25:51.435Z,0.37
2024-03-18T07:26:53.282Z,0.39
2024-03-18T07:27:54.837Z,0.38
2024-03-18T07:28:56.443Z,0.36
2024-03-18T07:29:58.730Z,0.35
2024-03-18T07:31:01.025Z,0.35
2024-03-18T07:32:02.902Z,0.34
2024-03-18T07:33:05.431Z,0.28
2024-03-18T07:34:06.997Z,0.37
2024-03-18T07:35:15.498Z,0.39
2024-03-18T07:36:18.001Z,0.41
2024-03-18T07:37:20.619Z,0.43
2024-03-18T07:38:26.103Z,0.45
2024-03-18T07:39:27.921Z,0.45
2024-03-18T07:40:29.569Z,0.46
2024-03-18T07:41:32.017Z,0.48
2024-03-18T07:42:33.669Z,0.52
2024-03-18T07:43:35.304Z,0.54
2024-03-18T07:44:36.820Z,0.53
2024-03-18T07:45:40.859Z,0.52
2024-03-18T07:46:43.110Z,0.55
2024-03-18T07:47:44.646Z,0.56
2024-03-18T07:48:47.654Z,0.56
2024-03-18T07:49:49.458Z,0.55
2024-03-18T07:50:57.017Z,0.50
2024-03-18T07:51:59.049Z,0.52
2024-03-18T07:53:01.904Z,0.51
2024-03-18T07:54:03.508Z,0.50
2024-03-18T07:55:05.400Z,0.51
2024-03-18T07:56:08.407Z,0.50
2024-03-18T07:57:09.983Z,0.50
2024-03-18T07:58:11.631Z,0.52
2024-03-18T07:59:13.388Z,0.56
2024-03-18T08:00:15.813Z,0.58
2024-03-18T08:01:17.663Z,0.57
2024-03-18T08:02:19.621Z,0.57
2024-03-18T08:03:22.906Z,0.57
2024-03-18T08:04:24.519Z,0.59
2024-03-18T08:05:29.811Z,0.63
2024-03-18T08:06:32.550Z,0.67
2024-03-18T08:07:34.069Z,0.68
2024-03-18T08:08:35.720Z,0.69
2024-03-18T08:09:37.321Z,0.65
2024-03-18T08:10:38.926Z,0.67
2024-03-18T08:11:41.379Z,0.69
2024-03-18T08:12:43.741Z,0.70
2024-03-18T08:13:45.408Z,0.71
2024-03-18T08:14:47.421Z,0.72
2024-03-18T08:15:48.994Z,0.74
2024-03-18T08:16:50.727Z,0.77
2024-03-18T08:17:52.339Z,0.78
2024-03-18T08:18:53.981Z,0.82
2024-03-18T08:19:55.536Z,0.80
2024-03-18T08:20:57.175Z,0.79
2024-03-18T08:22:06.858Z,0.70
2024-03-18T08:23:17.655Z,0.78
2024-03-18T08:24:19.264Z,0.78
2024-03-18T08:25:21.172Z,0.81
2024-03-18T08:26:22.865Z,0.83
2024-03-18T08:27:26.678Z,0.87
2024-03-18T08:28:28.222Z,0.77
2024-03-18T08:29:30.801Z,0.82
2024-03-18T08:30:32.321Z,0.81
2024-03-18T08:31:33.877Z,0.83
2024-03-18T08:32:35.514Z,0.83
2024-03-18T08:33:56.104Z,0.87
2024-03-18T08:34:59.301Z,0.86
2024-03-18T08:36:01.417Z,0.87
2024-03-18T08:37:03.392Z,0.88
2024-03-18T08:38:05.655Z,0.90
2024-03-18T08:39:07.325Z,0.88
2024-03-18T08:40:10.270Z,0.89
2024-03-18T08:41:11.957Z,0.90
2024-03-18T08:42:14.554Z,0.87
2024-03-18T08:43:16.097Z,0.89
2024-03-18T08:44:18.205Z,0.88
2024-03-18T08:45:19.921Z,0.87
2024-03-18T08:46:21.740Z,0.86
2024-03-18T08:47:23.282Z,0.83
2024-03-18T08:48:27.966Z,0.83
2024-03-18T08:49:29.500Z,0.85
2024-03-18T08:50:31.117Z,0.89
2024-03-18T08:51:32.684Z,0.92
2024-03-18T08:52:37.451Z,0.91
2024-03-18T08:53:38.959Z,0.96
2024-03-18T08:54:40.867Z,0.98
2024-03-18T08:55:49.885Z,1.02
2024-03-18T08:56:54.615Z,1.05
2024-03-18T08:57:56.162Z,1.10
2024-03-18T08:58:57.773Z,1.11
2024-03-18T08:59:59.564Z,1.09
2024-03-18T09:01:02.460Z,1.09
2024-03-18T09:02:04.233Z,1.06
2024-03-18T09:03:05.817Z,1.02
2024-03-18T09:04:07.466Z,1.02
2024-03-18T09:05:09.020Z,1.02
2024-03-18T09:06:10.818Z,0.98
2024-03-18T09:07:12.430Z,0.98
2024-03-18T09:08:14.427Z,0.99
2024-03-18T09:09:15.945Z,1.02
2024-03-18T09:10:17.713Z,1.02
2024-03-18T09:11:19.377Z,1.02
2024-03-18T09:12:21.159Z,1.04
2024-03-18T09:13:23.091Z,1.08
2024-03-18T09:14:25.348Z,1.11
2024-03-18T09:15:26.979Z,1.15
2024-03-18T09:16:28.529Z,1.15
2024-03-18T09:17:30.283Z,1.16
2024-03-18T09:18:32.483Z,1.15
2024-03-18T09:19:40.454Z,1.16
2024-03-18T09:20:42.214Z,1.15
2024-03-18T09:21:43.854Z,1.14
2024-03-18T09:22:46.442Z,1.14
2024-03-18T09:23:51.619Z,1.17
2024-03-18T09:24:53.983Z,1.21
2024-03-18T09:25:55.583Z,1.25
2024-03-18T09:26:59.057Z,1.27
2024-03-18T09:28:03.375Z,1.28
2024-03-18T09:29:06.710Z,1.26
2024-03-18T09:30:09.891Z,1.25
2024-03-18T09:31:11.466Z,1.26
2024-03-18T09:32:13.130Z,1.26
2024-03-18T09:33:14.805Z,1.25
2024-03-18T09:34:17.810Z,1.25
2024-03-18T09:35:19.589Z,1.24
2024-03-18T09:36:21.337Z,1.21
2024-03-18T09:37:24.053Z,1.19
2024-03-18T09:38:25.844Z,1.17
2024-03-18T09:39:27.368Z,1.17
2024-03-18T09:40:30.055Z,1.17
2024-03-18T09:41:35.933Z,1.16
2024-03-18T09:42:38.531Z,1.16
2024-03-18T09:43:40.134Z,1.22
2024-03-18T09:44:41.742Z,1.23
2024-03-18T09:45:43.428Z,1.27
2024-03-18T09:46:45.139Z,1.27
2024-03-18T09:47:49.698Z,1.27
2024-03-18T09:48:52.197Z,1.18
2024-03-18T09:49:57.439Z,1.27
2024-03-18T09:51:03.760Z,1.28
2024-03-18T09:52:06.533Z,1.27
2024-03-18T09:53:12.508Z,1.28
2024-03-18T09:54:19.139Z,1.28
2024-03-18T09:55:26.087Z,1.30
2024-03-18T09:56:27.769Z,1.32
2024-03-18T09:57:30.816Z,1.36
2024-03-18T09:58:32.428Z,1.41
2024-03-18T09:59:34.558Z,1.43
2024-03-18T10:00:36.066Z,1.47
2024-03-18T10:01:37.912Z,1.50
2024-03-18T10:02:39.406Z,1.55
2024-03-18T10:03:41.813Z,1.56
2024-03-18T10:04:47.793Z,1.58
2024-03-18T10:05:49.494Z,1.59
2024-03-18T10:06:54.230Z,1.56
2024-03-18T10:07:55.909Z,1.54
2024-03-18T10:08:58.667Z,1.54
2024-03-18T10:10:00.334Z,1.52
2024-03-18T10:11:02.080Z,1.51
2024-03-18T10:12:04.250Z,1.51
2024-03-18T10:13:07.948Z,1.52
2024-03-18T10:14:09.555Z,1.50
2024-03-18T10:15:13.573Z,1.53
2024-03-18T10:16:15.214Z,1.56
2024-03-18T10:17:19.024Z,1.50
2024-03-18T10:18:20.669Z,1.55
2024-03-18T10:19:22.663Z,1.54
2024-03-18T10:20:24.310Z,1.56
2024-03-18T10:21:26.989Z,1.55
2024-03-18T10:22:28.587Z,1.55
2024-03-18T10:23:30.136Z,1.57
2024-03-18T10:24:32.027Z,1.60
2024-03-18T10:25:33.735Z,1.61
2024-03-18T10:26:37.066Z,1.61
2024-03-18T10:27:38.572Z,1.61
2024-03-18T10:28:40.391Z,1.65
2024-03-18T10:29:42.158Z,1.67
2024-03-18T10:30:43.777Z,1.72
2024-03-18T10:31:47.752Z,1.75
2024-03-18T10:32:56.320Z,1.77
2024-03-18T10:34:02.860Z,1.80
2024-03-18T10:35:08.681Z,1.80
2024-03-18T10:36:36.593Z,1.82
2024-03-18T10:37:41.472Z,1.85
2024-03-18T10:38:44.839Z,1.84
2024-03-18T10:40:09.380Z,1.86
2024-03-18T10:41:14.373Z,1.91
2024-03-18T10:42:16.538Z,1.94
2024-03-18T10:43:36.424Z,1.98
2024-03-18T10:44:46.939Z,1.98
2024-03-18T10:45:53.429Z,1.97
2024-03-18T10:46:55.044Z,1.96
2024-03-18T10:47:56.884Z,1.97
2024-03-18T10:49:00.086Z,1.99
2024-03-18T10:50:03.381Z,2.04
2024-03-18T10:51:11.363Z,2.06
2024-03-18T10:52:14.078Z,2.11
2024-03-18T10:53:20.786Z,2.16
2024-03-18T10:54:25.719Z,2.18
2024-03-18T10:55:31.413Z,2.21
2024-03-18T10:56:34.521Z,2.24
2024-03-18T10:57:36.299Z,2.23
2024-03-18T10:58:39.691Z,2.22
2024-03-18T10:59:42.116Z,2.24
2024-03-18T11:00:45.551Z,2.23
2024-03-18T11:01:47.630Z,2.19
2024-03-18T11:03:03.928Z,2.22
2024-03-18T11:04:18.481Z,2.17
2024-03-18T11:05:43.549Z,2.29
2024-03-18T11:06:50.632Z,2.36
2024-03-18T11:07:53.580Z,2.31
2024-03-18T11:08:57.105Z,2.37
2024-03-18T11:10:11.795Z,2.35
2024-03-18T11:11:17.253Z,2.34
2024-03-18T11:12:36.390Z,2.34
2024-03-18T11:13:43.037Z,2.32
2024-03-18T11:14:44.633Z,2.36
2024-03-18T11:15:51.837Z,2.35
2024-03-18T11:16:54.981Z,2.38
2024-03-18T11:18:08.804Z,2.34
2024-03-18T11:19:20.518Z,2.29
2024-03-18T11:20:22.075Z,2.24
2024-03-18T11:21:24.514Z,2.24
2024-03-18T11:22:26.281Z,2.19
2024-03-18T11:23:32.964Z,2.18
2024-03-18T11:24:34.612Z,2.19
2024-03-18T11:25:37.707Z,2.15
2024-03-18T11:26:42.253Z,2.15
2024-03-18T11:27:53.238Z,2.14
2024-03-18T11:29:07.943Z,2.10
2024-03-18T11:30:27.130Z,2.10
2024-03-18T11:31:34.869Z,2.08
2024-03-18T11:32:36.555Z,2.08
2024-03-18T11:33:39.534Z,2.05
2024-03-18T11:34:42.120Z,2.02
2024-03-18T11:35:43.996Z,2.03
2024-03-18T11:36:45.529Z,2.09
2024-03-18T11:37:48.420Z,2.11
2024-03-18T11:38:50.058Z,2.08
2024-03-18T11:39:53.027Z,2.07
2024-03-18T11:40:56.093Z,2.08
2024-03-18T11:42:03.537Z,2.07
2024-03-18T11:43:06.426Z,2.07
2024-03-18T11:44:14.293Z,2.07
2024-03-18T11:45:20.903Z,2.06
2024-03-18T11:46:22.665Z,2.06
2024-03-18T11:47:24.374Z,2.04
2024-03-18T11:48:25.884Z,2.05
2024-03-18T11:49:28.957Z,2.06
2024-03-18T11:50:32.256Z,2.06
2024-03-18T11:51:34.592Z,2.06
2024-03-18T11:52:36.755Z,2.05
2024-03-18T11:53:38.423Z,2.04
2024-03-18T11:54:40.332Z,2.02
2024-03-18T11:55:42.423Z,2.02
2024-03-18T11:56:43.964Z,1.99
2024-03-18T11:57:45.437Z,1.94
2024-03-18T11:58:48.904Z,1.91
2024-03-18T11:59:50.638Z,1.87
2024-03-18T12:00:52.218Z,1.83
2024-03-18T12:01:56.143Z,1.80
2024-03-18T12:02:57.711Z,1.79
2024-03-18T12:03:59.310Z,1.79
2024-03-18T12:05:00.935Z,1.79
2024-03-18T12:06:03.050Z,1.82
2024-03-18T12:07:04.653Z,1.81
2024-03-18T12:08:11.834Z,1.83
2024-03-18T12:09:14.021Z,1.82
2024-03-18T12:10:22.041Z,1.83
2024-03-18T12:11:23.765Z,1.84
2024-03-18T12:12:25.975Z,1.86
2024-03-18T12:13:28.480Z,1.90
2024-03-18T12:14:31.847Z,1.93
2024-03-18T12:15:33.445Z,1.95
2024-03-18T12:16:34.999Z,1.95
2024-03-18T12:17:36.545Z,1.99
2024-03-18T12:18:38.163Z,2.01
2024-03-18T12:19:52.210Z,2.04
2024-03-18T12:20:55.060Z,2.05
2024-03-18T12:21:56.656Z,2.07
2024-03-18T12:23:00.810Z,2.08
2024-03-18T12:24:27.777Z,2.10
2024-03-18T12:25:50.878Z,2.12
2024-03-18T12:27:13.429Z,2.16
2024-03-18T12:28:35.103Z,2.15
2024-03-18T12:29:36.828Z,2.12
2024-03-18T12:30:38.399Z,2.09
2024-03-18T12:31:40.179Z,2.07
2024-03-18T12:32:41.704Z,2.05
2024-03-18T12:33:44.354Z,2.04
2024-03-18T12:34:45.830Z,2.01
2024-03-18T12:35:48.943Z,1.96
2024-03-18T12:36:50.572Z,1.95
2024-03-18T12:37:55.636Z,1.96
2024-03-18T12:38:59.762Z,2.00
2024-03-18T12:40:05.351Z,2.04
2024-03-18T12:41:14.388Z,2.04
2024-03-18T12:42:16.026Z,2.06
2024-03-18T12:43:17.968Z,2.08
2024-03-18T12:44:19.730Z,2.00
2024-03-18T12:45:29.388Z,2.11
2024-03-18T12:46:34.781Z,2.09
2024-03-18T12:47:36.454Z,2.12
2024-03-18T12:48:38.125Z,2.16
2024-03-18T12:49:39.817Z,2.18
2024-03-18T12:50:41.350Z,2.22
2024-03-18T12:51:43.032Z,2.23
2024-03-18T12:52:45.699Z,2.22
2024-03-18T12:53:49.521Z,2.18
2024-03-18T12:54:51.123Z,2.17
2024-03-18T12:55:53.757Z,2.16
2024-03-18T12:56:55.988Z,2.19
2024-03-18T12:57:57.886Z,2.14
2024-03-18T12:59:01.502Z,2.14
2024-03-18T13:00:06.156Z,2.15
2024-03-18T13:01:09.009Z,2.13
2024-03-18T13:02:14.502Z,2.10
2024-03-18T13:03:17.032Z,2.10
2024-03-18T13:04:18.993Z,2.11
2024-03-18T13:05:22.020Z,2.11
2024-03-18T13:06:23.870Z,2.09
2024-03-18T13:07:25.774Z,2.08
2024-03-18T13:08:30.533Z,2.06
2024-03-18T13:09:32.928Z,2.05
2024-03-18T13:10:35.704Z,2.07
2024-03-18T13:11:39.233Z,2.06
2024-03-18T13:12:40.732Z,2.05
2024-03-18T13:13:44.050Z,2.04
2024-03-18T13:14:46.282Z,2.03
2024-03-18T13:15:48.261Z,2.02
2024-03-18T13:16:50.523Z,2.03
2024-03-18T13:17:52.078Z,2.06
2024-03-18T13:18:53.588Z,2.10
2024-03-18T13:19:55.100Z,2.13
2024-03-18T13:20:56.942Z,2.15
2024-03-18T13:21:58.482Z,2.10
2024-03-18T13:23:00.086Z,2.09
2024-03-18T13:24:01.645Z,2.08
2024-03-18T13:25:03.632Z,2.08
2024-03-18T13:26:05.938Z,2.06
2024-03-18T13:27:08.609Z,2.07
2024-03-18T13:28:10.335Z,2.06
2024-03-18T13:29:15.125Z,2.06
2024-03-18T13:30:17.187Z,2.06
2024-03-18T13:31:22.776Z,2.06
2024-03-18T13:32:24.445Z,2.05
2024-03-18T13:33:26.193Z,2.06
2024-03-18T13:34:27.697Z,1.99
2024-03-18T13:35:29.468Z,2.08
2024-03-18T13:36:31.264Z,2.12
2024-03-18T13:37:35.828Z,2.08
2024-03-18T13:38:38.272Z,2.07
2024-03-18T13:39:39.857Z,2.05
2024-03-18T13:40:43.268Z,2.09
2024-03-18T13:41:47.021Z,2.05
2024-03-18T13:42:51.808Z,1.98
2024-03-18T13:43:53.452Z,2.03
2024-03-18T13:44:55.097Z,2.04
2024-03-18T13:45:57.402Z,2.01
2024-03-18T13:47:00.730Z,2.00
2024-03-18T13:48:07.175Z,2.00
2024-03-18T13:49:11.962Z,1.99
2024-03-18T13:50:13.683Z,2.00
2024-03-18T13:51:15.809Z,2.02
2024-03-18T13:52:17.501Z,2.05
2024-03-18T13:53:19.254Z,2.09
2024-03-18T13:54:20.903Z,2.12
2024-03-18T13:55:25.467Z,2.14